sensor_id;sensor_type;location;lat;lon;timestamp;P1;durP1;ratioP1;P2;durP2;ratioP2
72156;SDS011;60035;52.122;5.406;2022-12-11T00:01:25;49.80;;;14.18;;
72156;SDS011;60035;52.122;5.406;2022-12-11T00:03:52;62.80;;;15.80;;
72156;SDS011;60035;52.122;5.406;2022-12-11T00:06:20;59.05;;;14.32;;
72156;SDS011;60035;52.122;5.406;2022-12-11T00:08:52;64.20;;;16.52;;
72156;SDS011;60035;52.122;5.406;2022-12-11T00:11:20;53.00;;;13.88;;
72156;SDS011;60035;52.122;5.406;2022-12-11T00:13:47;64.15;;;15.63;;
72156;SDS011;60035;52.122;5.406;2022-12-11T00:16:14;67.65;;;15.45;;
72156;SDS011;60035;52.122;5.406;2022-12-11T00:18:41;62.42;;;15.63;;
72156;SDS011;60035;52.122;5.406;2022-12-11T00:21:09;59.50;;;15.55;;
72156;SDS011;60035;52.122;5.406;2022-12-11T00:23:38;55.75;;;14.50;;
72156;SDS011;60035;52.122;5.406;2022-12-11T00:26:09;72.47;;;16.50;;
72156;SDS011;60035;52.122;5.406;2022-12-11T00:28:39;58.22;;;13.38;;
72156;SDS011;60035;52.122;5.406;2022-12-11T00:31:08;65.95;;;15.77;;
72156;SDS011;60035;52.122;5.406;2022-12-11T00:33:37;62.28;;;15.93;;
72156;SDS011;60035;52.122;5.406;2022-12-11T00:36:09;59.83;;;14.48;;
72156;SDS011;60035;52.122;5.406;2022-12-11T00:38:38;64.78;;;14.73;;
72156;SDS011;60035;52.122;5.406;2022-12-11T00:41:04;53.88;;;14.63;;
72156;SDS011;60035;52.122;5.406;2022-12-11T00:43:31;61.47;;;13.68;;
72156;SDS011;60035;52.122;5.406;2022-12-11T00:45:57;61.53;;;14.02;;
72156;SDS011;60035;52.122;5.406;2022-12-11T00:48:24;60.92;;;14.98;;
72156;SDS011;60035;52.122;5.406;2022-12-11T00:50:50;60.15;;;14.52;;
72156;SDS011;60035;52.122;5.406;2022-12-11T00:53:17;54.85;;;16.17;;
72156;SDS011;60035;52.122;5.406;2022-12-11T00:55:43;55.63;;;15.43;;
72156;SDS011;60035;52.122;5.406;2022-12-11T00:58:10;54.90;;;14.80;;
72156;SDS011;60035;52.122;5.406;2022-12-11T01:00:37;52.95;;;13.95;;
72156;SDS011;60035;52.122;5.406;2022-12-11T01:03:04;61.85;;;16.20;;
72156;SDS011;60035;52.122;5.406;2022-12-11T01:05:32;64.30;;;15.15;;
72156;SDS011;60035;52.122;5.406;2022-12-11T01:07:59;75.65;;;15.68;;
72156;SDS011;60035;52.122;5.406;2022-12-11T01:10:26;66.55;;;15.90;;
72156;SDS011;60035;52.122;5.406;2022-12-11T01:12:59;68.88;;;15.85;;
72156;SDS011;60035;52.122;5.406;2022-12-11T01:18:07;54.78;;;14.20;;
72156;SDS011;60035;52.122;5.406;2022-12-11T01:20:34;63.92;;;14.52;;
72156;SDS011;60035;52.122;5.406;2022-12-11T01:23:05;70.63;;;15.55;;
72156;SDS011;60035;52.122;5.406;2022-12-11T01:25:32;58.15;;;16.17;;
72156;SDS011;60035;52.122;5.406;2022-12-11T01:28:03;65.82;;;15.88;;
72156;SDS011;60035;52.122;5.406;2022-12-11T01:30:31;66.45;;;15.60;;
72156;SDS011;60035;52.122;5.406;2022-12-11T01:33:01;75.45;;;16.83;;
72156;SDS011;60035;52.122;5.406;2022-12-11T01:35:28;68.80;;;17.33;;
72156;SDS011;60035;52.122;5.406;2022-12-11T01:37:55;65.25;;;17.33;;
72156;SDS011;60035;52.122;5.406;2022-12-11T01:40:22;71.13;;;16.75;;
72156;SDS011;60035;52.122;5.406;2022-12-11T01:42:48;66.07;;;15.90;;
72156;SDS011;60035;52.122;5.406;2022-12-11T01:47:55;67.03;;;16.42;;
72156;SDS011;60035;52.122;5.406;2022-12-11T01:50:28;64.57;;;15.32;;
72156;SDS011;60035;52.122;5.406;2022-12-11T01:52:57;65.07;;;16.48;;
72156;SDS011;60035;52.122;5.406;2022-12-11T01:55:24;71.22;;;17.35;;
72156;SDS011;60035;52.122;5.406;2022-12-11T01:57:50;67.43;;;15.90;;
72156;SDS011;60035;52.122;5.406;2022-12-11T02:00:18;66.68;;;16.85;;
72156;SDS011;60035;52.122;5.406;2022-12-11T02:02:45;62.03;;;15.18;;
72156;SDS011;60035;52.122;5.406;2022-12-11T02:05:12;68.00;;;16.98;;
72156;SDS011;60035;52.122;5.406;2022-12-11T02:07:40;66.15;;;16.52;;
72156;SDS011;60035;52.122;5.406;2022-12-11T02:10:11;64.55;;;15.95;;
72156;SDS011;60035;52.122;5.406;2022-12-11T02:12:52;50.38;;;14.70;;
72156;SDS011;60035;52.122;5.406;2022-12-11T02:15:35;59.97;;;15.50;;
72156;SDS011;60035;52.122;5.406;2022-12-11T02:18:35;60.35;;;16.08;;
72156;SDS011;60035;52.122;5.406;2022-12-11T02:21:17;53.20;;;15.88;;
72156;SDS011;60035;52.122;5.406;2022-12-11T02:29:37;55.97;;;15.40;;
72156;SDS011;60035;52.122;5.406;2022-12-11T02:32:15;63.65;;;16.58;;
72156;SDS011;60035;52.122;5.406;2022-12-11T02:37:23;58.25;;;15.65;;
72156;SDS011;60035;52.122;5.406;2022-12-11T02:39:54;56.92;;;15.55;;
72156;SDS011;60035;52.122;5.406;2022-12-11T02:42:22;54.78;;;14.48;;
72156;SDS011;60035;52.122;5.406;2022-12-11T02:44:53;56.05;;;15.40;;
72156;SDS011;60035;52.122;5.406;2022-12-11T02:47:22;50.60;;;15.75;;
72156;SDS011;60035;52.122;5.406;2022-12-11T02:52:21;50.03;;;12.93;;
72156;SDS011;60035;52.122;5.406;2022-12-11T02:54:54;49.78;;;13.90;;
72156;SDS011;60035;52.122;5.406;2022-12-11T02:57:25;54.85;;;14.93;;
72156;SDS011;60035;52.122;5.406;2022-12-11T02:59:58;57.22;;;15.75;;
72156;SDS011;60035;52.122;5.406;2022-12-11T03:02:24;53.50;;;16.10;;
72156;SDS011;60035;52.122;5.406;2022-12-11T03:04:51;53.63;;;16.23;;
72156;SDS011;60035;52.122;5.406;2022-12-11T03:07:23;63.60;;;16.42;;
72156;SDS011;60035;52.122;5.406;2022-12-11T03:09:52;52.83;;;15.20;;
72156;SDS011;60035;52.122;5.406;2022-12-11T03:12:20;62.83;;;15.73;;
72156;SDS011;60035;52.122;5.406;2022-12-11T03:14:52;57.35;;;16.15;;
72156;SDS011;60035;52.122;5.406;2022-12-11T03:17:24;50.90;;;15.48;;
72156;SDS011;60035;52.122;5.406;2022-12-11T03:19:59;53.63;;;14.77;;
72156;SDS011;60035;52.122;5.406;2022-12-11T03:22:56;46.05;;;14.75;;
72156;SDS011;60035;52.122;5.406;2022-12-11T03:25:29;52.78;;;14.57;;
72156;SDS011;60035;52.122;5.406;2022-12-11T03:28:10;48.25;;;14.07;;
72156;SDS011;60035;52.122;5.406;2022-12-11T03:30:38;57.55;;;15.93;;
72156;SDS011;60035;52.122;5.406;2022-12-11T03:33:10;47.25;;;14.50;;
72156;SDS011;60035;52.122;5.406;2022-12-11T03:35:52;48.75;;;15.10;;
72156;SDS011;60035;52.122;5.406;2022-12-11T03:38:27;50.67;;;14.23;;
72156;SDS011;60035;52.122;5.406;2022-12-11T03:40:59;55.25;;;15.35;;
72156;SDS011;60035;52.122;5.406;2022-12-11T03:43:29;45.08;;;14.13;;
72156;SDS011;60035;52.122;5.406;2022-12-11T03:45:57;44.85;;;14.95;;
72156;SDS011;60035;52.122;5.406;2022-12-11T03:48:26;46.00;;;15.02;;
72156;SDS011;60035;52.122;5.406;2022-12-11T03:50:56;49.53;;;15.10;;
72156;SDS011;60035;52.122;5.406;2022-12-11T03:53:24;43.13;;;14.35;;
72156;SDS011;60035;52.122;5.406;2022-12-11T03:55:52;43.17;;;14.07;;
72156;SDS011;60035;52.122;5.406;2022-12-11T03:58:21;40.65;;;13.90;;
72156;SDS011;60035;52.122;5.406;2022-12-11T04:00:47;40.80;;;14.50;;
72156;SDS011;60035;52.122;5.406;2022-12-11T04:03:14;36.42;;;12.55;;
72156;SDS011;60035;52.122;5.406;2022-12-11T04:05:45;42.95;;;13.40;;
72156;SDS011;60035;52.122;5.406;2022-12-11T04:08:13;39.20;;;14.45;;
72156;SDS011;60035;52.122;5.406;2022-12-11T04:10:40;42.90;;;13.00;;
72156;SDS011;60035;52.122;5.406;2022-12-11T04:13:08;41.33;;;13.57;;
72156;SDS011;60035;52.122;5.406;2022-12-11T04:15:35;42.75;;;15.23;;
72156;SDS011;60035;52.122;5.406;2022-12-11T04:18:03;37.67;;;13.45;;
72156;SDS011;60035;52.122;5.406;2022-12-11T04:20:52;42.33;;;14.13;;
72156;SDS011;60035;52.122;5.406;2022-12-11T04:23:37;39.33;;;13.13;;
72156;SDS011;60035;52.122;5.406;2022-12-11T04:26:22;35.88;;;13.50;;
72156;SDS011;60035;52.122;5.406;2022-12-11T04:28:48;36.75;;;13.65;;
72156;SDS011;60035;52.122;5.406;2022-12-11T04:31:17;36.40;;;12.32;;
72156;SDS011;60035;52.122;5.406;2022-12-11T04:33:45;37.15;;;12.27;;
72156;SDS011;60035;52.122;5.406;2022-12-11T04:36:12;38.33;;;12.73;;
72156;SDS011;60035;52.122;5.406;2022-12-11T04:38:39;39.33;;;13.52;;
72156;SDS011;60035;52.122;5.406;2022-12-11T04:41:10;38.53;;;12.63;;
72156;SDS011;60035;52.122;5.406;2022-12-11T04:43:38;38.03;;;13.13;;
72156;SDS011;60035;52.122;5.406;2022-12-11T04:46:07;34.00;;;12.02;;
72156;SDS011;60035;52.122;5.406;2022-12-11T04:48:38;31.55;;;12.13;;
72156;SDS011;60035;52.122;5.406;2022-12-11T04:51:05;34.40;;;12.85;;
72156;SDS011;60035;52.122;5.406;2022-12-11T04:53:32;33.83;;;12.73;;
72156;SDS011;60035;52.122;5.406;2022-12-11T04:55:59;37.80;;;12.52;;
72156;SDS011;60035;52.122;5.406;2022-12-11T04:58:26;31.92;;;11.48;;
72156;SDS011;60035;52.122;5.406;2022-12-11T05:00:53;34.55;;;11.48;;
72156;SDS011;60035;52.122;5.406;2022-12-11T05:03:19;36.45;;;11.80;;
72156;SDS011;60035;52.122;5.406;2022-12-11T05:05:50;34.05;;;12.02;;
72156;SDS011;60035;52.122;5.406;2022-12-11T05:08:18;30.73;;;10.68;;
72156;SDS011;60035;52.122;5.406;2022-12-11T05:10:59;36.72;;;12.65;;
72156;SDS011;60035;52.122;5.406;2022-12-11T05:13:31;33.58;;;11.43;;
72156;SDS011;60035;52.122;5.406;2022-12-11T05:15:58;32.30;;;11.27;;
72156;SDS011;60035;52.122;5.406;2022-12-11T05:18:24;32.03;;;11.43;;
72156;SDS011;60035;52.122;5.406;2022-12-11T05:20:55;32.60;;;11.38;;
72156;SDS011;60035;52.122;5.406;2022-12-11T05:23:26;30.13;;;11.15;;
72156;SDS011;60035;52.122;5.406;2022-12-11T05:25:57;28.70;;;10.52;;
72156;SDS011;60035;52.122;5.406;2022-12-11T05:28:27;29.95;;;10.60;;
72156;SDS011;60035;52.122;5.406;2022-12-11T05:30:56;28.50;;;10.85;;
72156;SDS011;60035;52.122;5.406;2022-12-11T05:33:24;34.83;;;11.68;;
72156;SDS011;60035;52.122;5.406;2022-12-11T05:35:51;30.13;;;10.32;;
72156;SDS011;60035;52.122;5.406;2022-12-11T05:38:17;29.50;;;10.50;;
72156;SDS011;60035;52.122;5.406;2022-12-11T05:40:44;30.75;;;11.10;;
72156;SDS011;60035;52.122;5.406;2022-12-11T05:43:10;29.88;;;10.25;;
72156;SDS011;60035;52.122;5.406;2022-12-11T05:45:37;32.15;;;10.90;;
72156;SDS011;60035;52.122;5.406;2022-12-11T05:48:04;31.40;;;10.45;;
72156;SDS011;60035;52.122;5.406;2022-12-11T05:50:30;31.17;;;10.70;;
72156;SDS011;60035;52.122;5.406;2022-12-11T05:52:58;31.27;;;11.60;;
72156;SDS011;60035;52.122;5.406;2022-12-11T05:55:24;31.95;;;10.82;;
72156;SDS011;60035;52.122;5.406;2022-12-11T05:57:51;32.17;;;11.95;;
72156;SDS011;60035;52.122;5.406;2022-12-11T06:00:17;30.90;;;10.70;;
72156;SDS011;60035;52.122;5.406;2022-12-11T06:02:46;31.58;;;11.18;;
72156;SDS011;60035;52.122;5.406;2022-12-11T06:05:13;29.77;;;10.18;;
72156;SDS011;60035;52.122;5.406;2022-12-11T06:07:40;26.98;;;9.18;;
72156;SDS011;60035;52.122;5.406;2022-12-11T06:10:08;32.30;;;11.32;;
72156;SDS011;60035;52.122;5.406;2022-12-11T06:12:34;31.25;;;10.13;;
72156;SDS011;60035;52.122;5.406;2022-12-11T06:15:01;32.47;;;12.05;;
72156;SDS011;60035;52.122;5.406;2022-12-11T06:17:28;30.30;;;10.88;;
72156;SDS011;60035;52.122;5.406;2022-12-11T06:19:54;29.30;;;10.50;;
72156;SDS011;60035;52.122;5.406;2022-12-11T06:22:21;30.90;;;11.90;;
72156;SDS011;60035;52.122;5.406;2022-12-11T06:24:47;31.73;;;11.65;;
72156;SDS011;60035;52.122;5.406;2022-12-11T06:27:14;31.98;;;11.35;;
72156;SDS011;60035;52.122;5.406;2022-12-11T06:29:40;33.58;;;11.50;;
72156;SDS011;60035;52.122;5.406;2022-12-11T06:32:09;33.20;;;11.75;;
72156;SDS011;60035;52.122;5.406;2022-12-11T06:34:35;34.03;;;12.30;;
72156;SDS011;60035;52.122;5.406;2022-12-11T06:37:02;35.50;;;12.75;;
72156;SDS011;60035;52.122;5.406;2022-12-11T06:39:28;34.00;;;11.30;;
72156;SDS011;60035;52.122;5.406;2022-12-11T06:41:55;38.00;;;12.73;;
72156;SDS011;60035;52.122;5.406;2022-12-11T06:44:21;33.92;;;12.13;;
72156;SDS011;60035;52.122;5.406;2022-12-11T06:46:48;30.80;;;11.60;;
72156;SDS011;60035;52.122;5.406;2022-12-11T06:49:14;35.03;;;12.05;;
72156;SDS011;60035;52.122;5.406;2022-12-11T06:51:41;32.53;;;11.77;;
72156;SDS011;60035;52.122;5.406;2022-12-11T06:54:07;32.88;;;11.77;;
72156;SDS011;60035;52.122;5.406;2022-12-11T06:56:34;35.97;;;12.82;;
72156;SDS011;60035;52.122;5.406;2022-12-11T06:59:01;36.47;;;12.40;;
72156;SDS011;60035;52.122;5.406;2022-12-11T07:01:32;36.70;;;12.35;;
72156;SDS011;60035;52.122;5.406;2022-12-11T07:03:59;35.40;;;12.43;;
72156;SDS011;60035;52.122;5.406;2022-12-11T07:06:31;39.97;;;13.00;;
72156;SDS011;60035;52.122;5.406;2022-12-11T07:08:58;40.10;;;13.35;;
72156;SDS011;60035;52.122;5.406;2022-12-11T07:11:24;40.90;;;13.00;;
72156;SDS011;60035;52.122;5.406;2022-12-11T07:13:51;40.75;;;13.57;;
72156;SDS011;60035;52.122;5.406;2022-12-11T07:16:17;43.25;;;14.73;;
72156;SDS011;60035;52.122;5.406;2022-12-11T07:18:49;43.75;;;13.95;;
72156;SDS011;60035;52.122;5.406;2022-12-11T07:21:17;36.70;;;12.25;;
72156;SDS011;60035;52.122;5.406;2022-12-11T07:23:44;38.63;;;13.05;;
72156;SDS011;60035;52.122;5.406;2022-12-11T07:26:13;39.15;;;13.60;;
72156;SDS011;60035;52.122;5.406;2022-12-11T07:28:42;40.83;;;13.57;;
72156;SDS011;60035;52.122;5.406;2022-12-11T07:31:16;34.88;;;12.25;;
72156;SDS011;60035;52.122;5.406;2022-12-11T07:33:45;39.13;;;14.15;;
72156;SDS011;60035;52.122;5.406;2022-12-11T07:36:12;43.78;;;13.68;;
72156;SDS011;60035;52.122;5.406;2022-12-11T07:38:40;35.50;;;11.75;;
72156;SDS011;60035;52.122;5.406;2022-12-11T07:41:09;38.25;;;12.80;;
72156;SDS011;60035;52.122;5.406;2022-12-11T07:43:37;39.85;;;12.20;;
72156;SDS011;60035;52.122;5.406;2022-12-11T07:46:05;34.35;;;12.15;;
72156;SDS011;60035;52.122;5.406;2022-12-11T07:48:41;34.97;;;12.93;;
72156;SDS011;60035;52.122;5.406;2022-12-11T07:51:13;33.38;;;12.45;;
72156;SDS011;60035;52.122;5.406;2022-12-11T07:53:44;37.67;;;13.10;;
72156;SDS011;60035;52.122;5.406;2022-12-11T07:56:13;35.90;;;13.27;;
72156;SDS011;60035;52.122;5.406;2022-12-11T07:58:41;33.92;;;12.43;;
72156;SDS011;60035;52.122;5.406;2022-12-11T08:01:10;37.88;;;12.60;;
72156;SDS011;60035;52.122;5.406;2022-12-11T08:03:38;33.75;;;11.90;;
72156;SDS011;60035;52.122;5.406;2022-12-11T08:06:05;39.15;;;14.55;;
72156;SDS011;60035;52.122;5.406;2022-12-11T08:08:32;36.05;;;13.02;;
72156;SDS011;60035;52.122;5.406;2022-12-11T08:11:05;35.90;;;12.85;;
72156;SDS011;60035;52.122;5.406;2022-12-11T08:13:33;38.60;;;14.63;;
72156;SDS011;60035;52.122;5.406;2022-12-11T08:16:03;35.97;;;13.02;;
72156;SDS011;60035;52.122;5.406;2022-12-11T08:18:32;36.60;;;11.77;;
72156;SDS011;60035;52.122;5.406;2022-12-11T08:21:03;33.90;;;12.30;;
72156;SDS011;60035;52.122;5.406;2022-12-11T08:23:31;33.15;;;12.10;;
72156;SDS011;60035;52.122;5.406;2022-12-11T08:25:57;37.22;;;13.45;;
72156;SDS011;60035;52.122;5.406;2022-12-11T08:28:24;33.20;;;12.43;;
72156;SDS011;60035;52.122;5.406;2022-12-11T08:30:52;33.22;;;12.38;;
72156;SDS011;60035;52.122;5.406;2022-12-11T08:33:19;37.67;;;13.73;;
72156;SDS011;60035;52.122;5.406;2022-12-11T08:35:50;35.00;;;12.15;;
72156;SDS011;60035;52.122;5.406;2022-12-11T08:38:17;36.13;;;12.68;;
72156;SDS011;60035;52.122;5.406;2022-12-11T08:40:50;32.63;;;13.10;;
72156;SDS011;60035;52.122;5.406;2022-12-11T08:43:16;33.30;;;11.52;;
72156;SDS011;60035;52.122;5.406;2022-12-11T08:45:43;32.83;;;11.85;;
72156;SDS011;60035;52.122;5.406;2022-12-11T08:48:13;33.70;;;12.23;;
72156;SDS011;60035;52.122;5.406;2022-12-11T08:50:39;26.25;;;10.90;;
72156;SDS011;60035;52.122;5.406;2022-12-11T08:53:06;32.15;;;10.98;;
72156;SDS011;60035;52.122;5.406;2022-12-11T08:55:32;28.77;;;10.70;;
72156;SDS011;60035;52.122;5.406;2022-12-11T08:57:59;32.17;;;11.25;;
72156;SDS011;60035;52.122;5.406;2022-12-11T09:00:25;28.63;;;10.00;;
72156;SDS011;60035;52.122;5.406;2022-12-11T09:02:54;28.00;;;10.05;;
72156;SDS011;60035;52.122;5.406;2022-12-11T09:05:21;29.08;;;11.38;;
72156;SDS011;60035;52.122;5.406;2022-12-11T09:07:48;33.13;;;12.20;;
72156;SDS011;60035;52.122;5.406;2022-12-11T09:10:14;36.75;;;13.32;;
72156;SDS011;60035;52.122;5.406;2022-12-11T09:12:41;36.70;;;13.02;;
72156;SDS011;60035;52.122;5.406;2022-12-11T09:15:07;37.67;;;12.57;;
72156;SDS011;60035;52.122;5.406;2022-12-11T09:17:35;35.85;;;12.18;;
72156;SDS011;60035;52.122;5.406;2022-12-11T09:20:02;34.13;;;12.13;;
72156;SDS011;60035;52.122;5.406;2022-12-11T09:22:30;34.50;;;12.25;;
72156;SDS011;60035;52.122;5.406;2022-12-11T09:24:58;35.67;;;12.32;;
72156;SDS011;60035;52.122;5.406;2022-12-11T09:27:25;32.03;;;12.10;;
72156;SDS011;60035;52.122;5.406;2022-12-11T09:29:51;32.92;;;12.57;;
72156;SDS011;60035;52.122;5.406;2022-12-11T09:32:18;31.15;;;11.73;;
72156;SDS011;60035;52.122;5.406;2022-12-11T09:34:44;33.60;;;11.73;;
72156;SDS011;60035;52.122;5.406;2022-12-11T09:37:11;33.83;;;11.85;;
72156;SDS011;60035;52.122;5.406;2022-12-11T09:39:37;31.17;;;11.90;;
72156;SDS011;60035;52.122;5.406;2022-12-11T09:42:10;34.00;;;11.57;;
72156;SDS011;60035;52.122;5.406;2022-12-11T09:47:20;30.58;;;11.52;;
72156;SDS011;60035;52.122;5.406;2022-12-11T09:49:57;32.38;;;11.98;;
72156;SDS011;60035;52.122;5.406;2022-12-11T09:52:33;34.45;;;11.80;;
72156;SDS011;60035;52.122;5.406;2022-12-11T09:55:09;35.28;;;12.32;;
72156;SDS011;60035;52.122;5.406;2022-12-11T10:00:43;33.40;;;12.52;;
72156;SDS011;60035;52.122;5.406;2022-12-11T10:06:14;31.00;;;11.35;;
72156;SDS011;60035;52.122;5.406;2022-12-11T10:16:57;32.25;;;12.75;;
72156;SDS011;60035;52.122;5.406;2022-12-11T10:19:28;28.95;;;11.60;;
72156;SDS011;60035;52.122;5.406;2022-12-11T10:21:57;32.45;;;11.85;;
72156;SDS011;60035;52.122;5.406;2022-12-11T10:24:33;30.45;;;11.48;;
72156;SDS011;60035;52.122;5.406;2022-12-11T10:27:29;34.03;;;11.70;;
72156;SDS011;60035;52.122;5.406;2022-12-11T10:30:00;31.55;;;10.95;;
72156;SDS011;60035;52.122;5.406;2022-12-11T10:38:41;33.67;;;13.18;;
72156;SDS011;60035;52.122;5.406;2022-12-11T10:41:10;30.98;;;11.77;;
72156;SDS011;60035;52.122;5.406;2022-12-11T10:43:40;33.90;;;12.90;;
72156;SDS011;60035;52.122;5.406;2022-12-11T10:46:18;33.13;;;11.13;;
72156;SDS011;60035;52.122;5.406;2022-12-11T10:48:54;30.05;;;11.73;;
72156;SDS011;60035;52.122;5.406;2022-12-11T10:51:40;24.98;;;9.20;;
72156;SDS011;60035;52.122;5.406;2022-12-11T10:57:04;29.92;;;10.65;;
72156;SDS011;60035;52.122;5.406;2022-12-11T10:59:43;31.65;;;11.82;;
72156;SDS011;60035;52.122;5.406;2022-12-11T11:02:24;25.88;;;10.68;;
72156;SDS011;60035;52.122;5.406;2022-12-11T11:04:57;28.95;;;10.63;;
72156;SDS011;60035;52.122;5.406;2022-12-11T11:07:26;28.80;;;11.32;;
72156;SDS011;60035;52.122;5.406;2022-12-11T11:10:09;29.45;;;11.48;;
72156;SDS011;60035;52.122;5.406;2022-12-11T11:12:44;27.48;;;10.50;;
72156;SDS011;60035;52.122;5.406;2022-12-11T11:18:07;30.25;;;11.25;;
72156;SDS011;60035;52.122;5.406;2022-12-11T11:20:41;26.80;;;10.55;;
72156;SDS011;60035;52.122;5.406;2022-12-11T11:23:13;27.90;;;10.63;;
72156;SDS011;60035;52.122;5.406;2022-12-11T11:25:47;26.15;;;9.57;;
72156;SDS011;60035;52.122;5.406;2022-12-11T11:28:18;28.55;;;10.07;;
72156;SDS011;60035;52.122;5.406;2022-12-11T11:30:55;29.35;;;10.73;;
72156;SDS011;60035;52.122;5.406;2022-12-11T11:33:24;30.60;;;10.25;;
72156;SDS011;60035;52.122;5.406;2022-12-11T11:35:55;32.25;;;11.20;;
72156;SDS011;60035;52.122;5.406;2022-12-11T11:38:25;29.02;;;9.68;;
72156;SDS011;60035;52.122;5.406;2022-12-11T11:41:10;31.85;;;10.60;;
72156;SDS011;60035;52.122;5.406;2022-12-11T11:54:36;27.58;;;10.73;;
72156;SDS011;60035;52.122;5.406;2022-12-11T11:57:28;28.90;;;10.43;;
72156;SDS011;60035;52.122;5.406;2022-12-11T12:00:05;28.33;;;10.50;;
72156;SDS011;60035;52.122;5.406;2022-12-11T12:02:41;29.67;;;10.60;;
72156;SDS011;60035;52.122;5.406;2022-12-11T12:05:12;26.50;;;11.57;;
72156;SDS011;60035;52.122;5.406;2022-12-11T12:07:44;25.15;;;10.55;;
72156;SDS011;60035;52.122;5.406;2022-12-11T12:12:56;25.60;;;9.65;;
72156;SDS011;60035;52.122;5.406;2022-12-11T12:15:50;24.85;;;9.20;;
72156;SDS011;60035;52.122;5.406;2022-12-11T12:26:34;31.75;;;10.88;;
72156;SDS011;60035;52.122;5.406;2022-12-11T12:31:52;24.17;;;9.85;;
72156;SDS011;60035;52.122;5.406;2022-12-11T12:34:41;24.83;;;9.70;;
72156;SDS011;60035;52.122;5.406;2022-12-11T12:41:13;27.63;;;9.95;;
72156;SDS011;60035;52.122;5.406;2022-12-11T12:49:13;28.02;;;9.48;;
72156;SDS011;60035;52.122;5.406;2022-12-11T12:51:42;23.50;;;9.80;;
72156;SDS011;60035;52.122;5.406;2022-12-11T12:54:11;25.35;;;10.13;;
72156;SDS011;60035;52.122;5.406;2022-12-11T12:56:42;26.60;;;8.85;;
72156;SDS011;60035;52.122;5.406;2022-12-11T12:59:19;26.55;;;10.00;;
72156;SDS011;60035;52.122;5.406;2022-12-11T13:01:52;27.50;;;9.18;;
72156;SDS011;60035;52.122;5.406;2022-12-11T13:04:44;26.52;;;8.73;;
72156;SDS011;60035;52.122;5.406;2022-12-11T13:07:27;28.58;;;10.63;;
72156;SDS011;60035;52.122;5.406;2022-12-11T13:10:00;29.65;;;10.38;;
72156;SDS011;60035;52.122;5.406;2022-12-11T13:12:30;26.30;;;9.30;;
72156;SDS011;60035;52.122;5.406;2022-12-11T13:17:52;26.92;;;9.75;;
72156;SDS011;60035;52.122;5.406;2022-12-11T13:20:20;27.05;;;10.20;;
72156;SDS011;60035;52.122;5.406;2022-12-11T13:28:45;30.98;;;10.23;;
72156;SDS011;60035;52.122;5.406;2022-12-11T13:33:46;29.05;;;11.10;;
72156;SDS011;60035;52.122;5.406;2022-12-11T13:39:19;29.15;;;10.40;;
72156;SDS011;60035;52.122;5.406;2022-12-11T13:42:05;27.27;;;10.27;;
72156;SDS011;60035;52.122;5.406;2022-12-11T13:44:39;31.38;;;10.80;;
72156;SDS011;60035;52.122;5.406;2022-12-11T13:47:10;32.70;;;12.35;;
72156;SDS011;60035;52.122;5.406;2022-12-11T13:49:41;32.35;;;11.43;;
72156;SDS011;60035;52.122;5.406;2022-12-11T13:52:19;31.75;;;11.98;;
72156;SDS011;60035;52.122;5.406;2022-12-11T13:54:49;34.10;;;11.98;;
72156;SDS011;60035;52.122;5.406;2022-12-11T13:57:21;32.63;;;12.32;;
72156;SDS011;60035;52.122;5.406;2022-12-11T13:59:51;31.90;;;11.93;;
72156;SDS011;60035;52.122;5.406;2022-12-11T14:04:58;31.25;;;11.95;;
72156;SDS011;60035;52.122;5.406;2022-12-11T14:07:28;29.88;;;11.45;;
72156;SDS011;60035;52.122;5.406;2022-12-11T14:09:59;34.78;;;13.10;;
72156;SDS011;60035;52.122;5.406;2022-12-11T14:12:28;37.67;;;13.48;;
72156;SDS011;60035;52.122;5.406;2022-12-11T14:14:56;39.17;;;12.85;;
72156;SDS011;60035;52.122;5.406;2022-12-11T14:17:28;35.30;;;11.95;;
72156;SDS011;60035;52.122;5.406;2022-12-11T14:19:57;34.30;;;11.95;;
72156;SDS011;60035;52.122;5.406;2022-12-11T14:22:26;33.75;;;11.65;;
72156;SDS011;60035;52.122;5.406;2022-12-11T14:24:56;37.22;;;12.27;;
72156;SDS011;60035;52.122;5.406;2022-12-11T14:27:24;30.77;;;11.85;;
72156;SDS011;60035;52.122;5.406;2022-12-11T14:29:52;32.03;;;12.25;;
72156;SDS011;60035;52.122;5.406;2022-12-11T14:32:41;31.08;;;11.90;;
72156;SDS011;60035;52.122;5.406;2022-12-11T14:35:17;33.45;;;12.05;;
72156;SDS011;60035;52.122;5.406;2022-12-11T14:37:49;31.30;;;10.93;;
72156;SDS011;60035;52.122;5.406;2022-12-11T14:40:17;34.05;;;12.48;;
72156;SDS011;60035;52.122;5.406;2022-12-11T14:42:54;38.80;;;13.05;;
72156;SDS011;60035;52.122;5.406;2022-12-11T14:48:14;39.05;;;13.85;;
72156;SDS011;60035;52.122;5.406;2022-12-11T14:50:49;38.35;;;13.98;;
72156;SDS011;60035;52.122;5.406;2022-12-11T14:53:29;32.95;;;12.75;;
72156;SDS011;60035;52.122;5.406;2022-12-11T14:56:02;39.15;;;14.50;;
72156;SDS011;60035;52.122;5.406;2022-12-11T14:58:31;35.08;;;13.55;;
72156;SDS011;60035;52.122;5.406;2022-12-11T15:01:04;35.80;;;13.40;;
72156;SDS011;60035;52.122;5.406;2022-12-11T15:03:33;37.13;;;12.93;;
72156;SDS011;60035;52.122;5.406;2022-12-11T15:06:27;34.17;;;13.20;;
72156;SDS011;60035;52.122;5.406;2022-12-11T15:08:55;31.58;;;11.38;;
72156;SDS011;60035;52.122;5.406;2022-12-11T15:11:22;37.95;;;12.75;;
72156;SDS011;60035;52.122;5.406;2022-12-11T15:13:56;36.80;;;12.98;;
72156;SDS011;60035;52.122;5.406;2022-12-11T15:16:25;44.03;;;13.30;;
72156;SDS011;60035;52.122;5.406;2022-12-11T15:18:54;40.22;;;13.75;;
72156;SDS011;60035;52.122;5.406;2022-12-11T15:21:28;35.75;;;13.15;;
72156;SDS011;60035;52.122;5.406;2022-12-11T15:23:58;33.67;;;11.82;;
72156;SDS011;60035;52.122;5.406;2022-12-11T15:26:36;36.75;;;12.43;;
72156;SDS011;60035;52.122;5.406;2022-12-11T15:34:44;35.35;;;13.05;;
72156;SDS011;60035;52.122;5.406;2022-12-11T15:37:36;40.72;;;13.30;;
72156;SDS011;60035;52.122;5.406;2022-12-11T15:40:03;38.45;;;14.93;;
72156;SDS011;60035;52.122;5.406;2022-12-11T15:42:31;41.30;;;14.98;;
72156;SDS011;60035;52.122;5.406;2022-12-11T15:47:30;35.35;;;12.50;;
72156;SDS011;60035;52.122;5.406;2022-12-11T15:49:58;36.00;;;12.73;;
72156;SDS011;60035;52.122;5.406;2022-12-11T15:52:27;35.88;;;13.05;;
72156;SDS011;60035;52.122;5.406;2022-12-11T15:54:53;36.00;;;13.10;;
72156;SDS011;60035;52.122;5.406;2022-12-11T15:57:20;34.88;;;12.85;;
72156;SDS011;60035;52.122;5.406;2022-12-11T15:59:49;35.55;;;12.73;;
72156;SDS011;60035;52.122;5.406;2022-12-11T16:02:18;36.63;;;12.57;;
72156;SDS011;60035;52.122;5.406;2022-12-11T16:04:44;32.55;;;12.57;;
72156;SDS011;60035;52.122;5.406;2022-12-11T16:07:18;37.63;;;13.50;;
72156;SDS011;60035;52.122;5.406;2022-12-11T16:09:47;38.10;;;13.18;;
72156;SDS011;60035;52.122;5.406;2022-12-11T16:12:14;35.55;;;13.82;;
72156;SDS011;60035;52.122;5.406;2022-12-11T16:14:41;40.70;;;14.98;;
72156;SDS011;60035;52.122;5.406;2022-12-11T16:17:10;35.67;;;13.43;;
72156;SDS011;60035;52.122;5.406;2022-12-11T16:19:38;40.58;;;14.38;;
72156;SDS011;60035;52.122;5.406;2022-12-11T16:22:06;34.35;;;12.43;;
72156;SDS011;60035;52.122;5.406;2022-12-11T16:24:34;32.08;;;12.93;;
72156;SDS011;60035;52.122;5.406;2022-12-11T16:27:01;33.00;;;12.23;;